aviador You're here:

KTVR Decoded Metar

TALLULAH/VICKSBU in LA, USA
Report Time2017-04-30 14:23:00
UTC Time2017-04-30 14:55:53
Flight Rules mvfr MVFR
Wind130° at 10 kt
W.Decomp.*RWY 18: 6.2 kt HW 7.9 kt LCW
W.Rank130° ranks 11
Current wind is above 130° avg. (5.5)
Visibility9999 m
Phenomena:Rain
Clouds:Broken 010 Hf
Overcast 019 Hf
Expected CloudBase > 800 ft AGL from Temp-Dew spread
Ceiling1,000 ft
Temp21°C (ISA +6)
Dew Point19°C (88% RH)
AAT20.6°C
QNH1007 hPa
Density Alt1,299 ft
Elevation85 ft
Report Wrong Elevation
Raw Report
KTVR 301423Z AUTO 13010KT 9SM RA BKN010 OVC019 21/19 A2973 RMK AO2
CIG 006V012 PRESFR P0003 T02060194 TSNO $=

Extra information for KTVR:More info

Metar Taf Metar & Taf Last 4 Metars F.Rules Stats Wind Profile Meteogram Temp Stats Airport Information Weather charts Add Link Nearby VenuesMetar ALERT Operation Metar Decoded Social comments

AIRNAV info for KTVR